METAR Data
IDs: Format: Raw Decoded Include TAF

Data at: 1443 UTC 25 Jan 2020

METAR for:WSSL (Singapore/Seletar Ar, --, SR)
Text:WSSL 251400Z 04007KT 9999 FEW018 BKN300 27/23 Q1011
Temperature: 27.0°C ( 81°F)
Dewpoint: 23.0°C ( 73°F) [RH = 79%]
Pressure (altimeter):29.85 inches Hg (1011.0 mb)
Winds:from the NE (40 degrees) at 8 MPH (7 knots; 3.6 m/s)
Visibility:6 or more sm (10+ km)
Ceiling:30000 feet AGL
Clouds: few clouds at 1800 feet AGL, broken clouds at 30000 feet AGL

TAF for:WSSL (Singapore/Seletar Ar, --, SR) issued at 1100 UTC 25 Jan 2020
Text:TAF WSSL 251100Z 2512/2618 03010KT 9999 FEW020
Forecast period:1200 UTC 25 January 2020 to 1800 UTC 26 January 2020
Forecast type:FROM: standard forecast or significant change
Winds:from the NNE (30 degrees) at 12 MPH (10 knots; 5.1 m/s)
Visibility:6 or more sm (10+ km)
Ceiling:at least 12,000 feet AGL
Clouds: few clouds at 2000 feet AGL